Time;durP1;ratioP1;P1;durP2;ratioP2;P2;SDS_P1;SDS_P2;PMS_P1;PMS_P2;Temp;Humidity;BMP_temperature;BMP_pressure;BME280_temperature;BME280_humidity;BME280_pressure;Samples;Min_cycle;Max_cycle;Signal;HPM_P1;HPM_P2
2021/08/07 00:08:19;;;;;;;0.63;0.50;;;23.80;99.90;;;;;;20655696;28;20702;-75
2021/08/07 00:18:24;;;;;;;0.50;0.38;;;23.70;99.90;;;;;;20649869;28;20907;-74
2021/08/07 00:28:28;;;;;;;1.52;0.43;;;23.70;99.90;;;;;;20653807;28;20196;-78
2021/08/07 00:38:33;;;;;;;0.30;0.28;;;23.60;99.90;;;;;;20653102;28;20647;-76
2021/08/07 00:48:37;;;;;;;0.35;0.30;;;23.30;99.90;;;;;;20649899;28;20543;-75
2021/08/07 00:58:42;;;;;;;0.87;0.80;;;23.00;99.90;;;;;;20634797;28;20963;-77
2021/08/07 01:08:51;;;;;;;2.50;1.63;;;22.80;99.90;;;;;;20666971;28;20250;-78
2021/08/07 01:18:58;;;;;;;0.37;0.23;;;22.60;99.90;;;;;;20678788;28;20223;-76
2021/08/07 01:29:04;;;;;;;0.57;0.57;;;22.50;99.90;;;;;;20677830;28;20192;-76
2021/08/07 01:39:08;;;;;;;0.60;0.50;;;22.50;99.90;;;;;;20677751;28;20219;-78
2021/08/07 01:49:15;;;;;;;0.77;0.50;;;22.50;99.90;;;;;;20676726;28;20193;-76
2021/08/07 01:59:21;;;;;;;1.93;0.83;;;22.40;99.90;;;;;;20684163;28;20701;-77
2021/08/07 02:09:27;;;;;;;0.33;0.33;;;22.40;99.90;;;;;;20676030;28;20227;-78
2021/08/07 02:19:31;;;;;;;0.40;0.37;;;22.30;99.90;;;;;;20645056;28;20227;-81
2021/08/07 02:29:39;;;;;;;0.57;0.57;;;22.30;99.90;;;;;;20680846;28;20226;-83
2021/08/07 02:39:43;;;;;;;0.60;0.47;;;22.10;99.90;;;;;;20697130;28;20223;-84
2021/08/07 02:49:48;;;;;;;1.50;0.97;;;22.20;99.90;;;;;;20702312;28;20182;-79
2021/08/07 02:59:52;;;;;;;1.23;1.17;;;22.30;99.90;;;;;;20704941;28;20297;-80
2021/08/07 03:09:57;;;;;;;2.93;0.87;;;22.20;99.90;;;;;;20646279;28;20247;-80
2021/08/07 03:20:01;;;;;;;2.20;1.03;;;22.10;99.90;;;;;;20620829;28;20231;-76
2021/08/07 03:30:07;;;;;;;0.50;0.37;;;22.10;99.90;;;;;;20619242;28;20192;-83
2021/08/07 03:40:12;;;;;;;1.20;1.10;;;22.20;99.90;;;;;;20689634;28;20230;-80
2021/08/07 03:50:18;;;;;;;0.60;0.60;;;22.30;99.90;;;;;;20720961;28;20182;-85
2021/08/07 04:00:25;;;;;;;1.63;1.23;;;22.40;99.90;;;;;;20716414;28;20686;-83
2021/08/07 04:10:30;;;;;;;0.73;0.70;;;22.60;99.90;;;;;;20697882;28;20308;-82
2021/08/07 04:20:34;;;;;;;1.37;1.17;;;22.60;99.90;;;;;;20733170;28;20340;-82
2021/08/07 04:30:39;;;;;;;3.13;0.50;;;22.70;99.90;;;;;;20774781;28;20681;-81
2021/08/07 04:40:42;;;;;;;0.40;0.32;;;22.90;99.90;;;;;;20777119;28;20822;-79
2021/08/07 04:50:47;;;;;;;4.10;1.20;;;23.20;99.90;;;;;;20776337;28;20454;-80
2021/08/07 05:00:51;;;;;;;12.73;1.02;;;23.40;99.90;;;;;;20776117;28;20232;-79
2021/08/07 05:10:57;;;;;;;0.20;0.13;;;23.70;99.90;;;;;;20714501;28;20534;-83
2021/08/07 05:21:01;;;;;;;1.05;0.90;;;23.50;99.90;;;;;;20688388;28;20226;-81
2021/08/07 05:31:06;;;;;;;1.10;0.40;;;23.80;99.90;;;;;;20689243;28;20198;-81
2021/08/07 05:41:09;;;;;;;0.65;0.45;;;23.80;99.90;;;;;;20691894;28;20544;-83
2021/08/07 05:51:14;;;;;;;0.50;0.50;;;23.80;99.90;;;;;;20698560;28;20460;-83
2021/08/07 06:01:18;;;;;;;1.17;1.10;;;23.90;99.90;;;;;;20708460;28;20226;-84
2021/08/07 06:11:23;;;;;;;0.63;0.50;;;23.90;99.90;;;;;;20648935;28;20235;-82
2021/08/07 06:21:27;;;;;;;0.52;0.52;;;24.20;99.90;;;;;;20639309;28;20223;-83
2021/08/07 06:31:40;;;;;;;0.50;0.50;;;24.70;99.90;;;;;;20660723;23;20246;-84
2021/08/07 06:41:58;;;;;;;0.98;0.88;;;25.00;99.90;;;;;;20712357;28;20229;-81
2021/08/07 06:52:08;;;;;;;0.55;0.50;;;24.90;99.90;;;;;;20704816;28;20689;-82
2021/08/07 07:13:11;;;;;;;1.55;0.73;;;25.30;99.90;;;;;;20713658;23;20231;-84
2021/08/07 07:34:49;;;;;;;1.27;0.70;;;25.70;99.90;;;;;;20988528;23;20237;-81
2021/08/07 07:56:48;;;;;;;0.88;0.88;;;26.00;99.90;;;;;;20632707;23;20223;-83
2021/08/07 08:07:00;;;;;;;4.13;1.05;;;26.10;99.90;;;;;;20572825;28;20998;-68
2021/08/07 08:17:04;;;;;;;0.68;0.63;;;26.20;99.90;;;;;;20577564;28;20229;-83
2021/08/07 08:27:13;;;;;;;0.77;0.60;;;26.30;99.90;;;;;;20576378;28;20195;-84
2021/08/07 08:37:20;;;;;;;1.38;1.30;;;26.80;99.90;;;;;;20559405;28;20218;-77
2021/08/07 08:47:28;;;;;;;0.75;0.65;;;26.60;99.90;;;;;;20570440;28;20220;-80
2021/08/07 08:57:32;;;;;;;0.82;0.82;;;26.20;99.90;;;;;;20556638;28;20238;-82
2021/08/07 09:07:37;;;;;;;3.10;0.63;;;26.20;99.90;;;;;;20573300;28;20219;-80
2021/08/07 09:17:40;;;;;;;0.38;0.38;;;26.10;99.90;;;;;;20619053;28;20242;-80
2021/08/07 09:28:03;;;;;;;3.17;1.10;;;26.30;99.90;;;;;;20613060;28;20442;-85
2021/08/07 09:38:09;;;;;;;1.08;0.55;;;26.70;99.90;;;;;;20589923;28;20218;-75
2021/08/07 09:48:18;;;;;;;1.58;1.33;;;27.00;99.90;;;;;;20561765;28;20342;-81
2021/08/07 09:58:32;;;;;;;1.15;1.02;;;27.30;99.90;;;;;;20609534;28;20450;-80
2021/08/07 10:08:52;;;;;;;1.17;0.65;;;27.50;99.90;;;;;;20576243;28;20356;-75
2021/08/07 10:19:10;;;;;;;2.05;1.13;;;27.80;99.90;;;;;;20821883;23;20239;-80
2021/08/07 10:40:38;;;;;;;1.05;0.38;;;28.20;99.90;;;;;;20551552;28;20784;-77
2021/08/07 10:50:48;;;;;;;0.75;0.40;;;28.60;99.90;;;;;;20526420;28;20192;-81
2021/08/07 11:01:45;;;;;;;1.10;1.02;;;28.70;99.90;;;;;;20567877;23;20243;-80
2021/08/07 11:12:45;;;;;;;0.75;0.60;;;29.30;99.90;;;;;;20605046;23;20569;-79
2021/08/07 11:23:17;;;;;;;0.57;0.30;;;29.60;99.90;;;;;;20558987;23;20266;-82
2021/08/07 11:33:25;;;;;;;0.50;0.50;;;30.40;99.90;;;;;;20635972;28;20689;-78
2021/08/07 11:43:33;;;;;;;1.40;1.30;;;31.00;99.90;;;;;;20629522;28;20233;-81
2021/08/07 12:04:18;;;;;;;0.77;0.77;;;31.70;99.90;;;;;;20595248;28;20306;-77
2021/08/07 12:14:29;;;;;;;1.80;1.70;;;30.80;99.90;;;;;;20625508;28;20195;-79
2021/08/07 12:24:39;;;;;;;0.63;0.40;;;31.70;99.90;;;;;;20621505;28;20230;-79
2021/08/07 12:34:49;;;;;;;0.80;0.63;;;33.70;99.90;;;;;;20647518;28;20226;-84
2021/08/07 12:55:52;;;;;;;0.75;0.75;;;33.90;99.90;;;;;;20631737;28;20358;-79
2021/08/07 13:06:04;;;;;;;2.00;1.13;;;33.70;99.90;;;;;;20621450;28;20227;-81
2021/08/07 13:16:46;;;;;;;2.47;0.93;;;34.10;99.90;;;;;;20592377;28;20428;-86
2021/08/07 13:26:50;;;;;;;1.13;0.82;;;34.30;99.90;;;;;;20624743;28;20215;-85
2021/08/07 13:36:56;;;;;;;3.63;0.60;;;35.00;99.90;;;;;;20617688;28;20596;-83
2021/08/07 13:47:03;;;;;;;0.70;0.70;;;33.00;99.90;;;;;;20599344;28;20668;-82
2021/08/07 13:57:08;;;;;;;2.28;1.23;;;31.60;99.90;;;;;;20618857;28;20243;-74
2021/08/07 14:07:12;;;;;;;3.42;1.33;;;30.80;99.90;;;;;;20616659;28;20282;-86
2021/08/07 14:17:20;;;;;;;3.40;0.75;;;30.70;99.90;;;;;;20629943;28;20231;-76
2021/08/07 14:27:27;;;;;;;0.50;0.40;;;32.30;99.90;;;;;;20630460;28;20219;-84
2021/08/07 14:37:38;;;;;;;0.98;0.95;;;33.30;99.90;;;;;;20612975;28;20250;-80
2021/08/07 14:47:41;;;;;;;0.88;0.52;;;32.10;99.90;;;;;;20633711;28;20262;-80
2021/08/07 14:58:00;;;;;;;0.95;0.88;;;31.10;99.90;;;;;;20623034;28;20337;-76
2021/08/07 15:08:05;;;;;;;0.57;0.57;;;30.90;99.90;;;;;;20569819;28;20208;-81
2021/08/07 15:18:13;;;;;;;0.50;0.40;;;29.30;99.90;;;;;;20530286;28;20306;-87
2021/08/07 15:28:17;;;;;;;1.15;1.05;;;28.90;99.90;;;;;;20546771;28;20695;-83
2021/08/07 15:38:25;;;;;;;0.52;0.45;;;28.70;99.90;;;;;;20517926;28;20499;-82
2021/08/07 15:48:50;;;;;;;0.70;0.45;;;28.90;99.90;;;;;;20563132;28;20241;-82
2021/08/07 15:59:01;;;;;;;3.67;0.63;;;29.10;99.90;;;;;;20558114;28;20231;-78
2021/08/07 16:09:05;;;;;;;5.55;0.60;;;28.10;99.90;;;;;;20591620;28;20293;-83
2021/08/07 16:19:13;;;;;;;3.58;1.10;;;28.70;99.90;;;;;;20606347;28;20258;-82
2021/08/07 16:29:17;;;;;;;0.57;0.40;;;28.50;99.90;;;;;;20622123;28;20187;-79
2021/08/07 16:39:31;;;;;;;0.88;0.57;;;28.10;99.90;;;;;;20622673;28;20227;-79
2021/08/07 16:49:34;;;;;;;2.10;0.57;;;27.60;99.90;;;;;;20618893;28;20293;-81
2021/08/07 16:59:52;;;;;;;0.70;0.55;;;27.20;99.90;;;;;;20625657;28;20287;-80
2021/08/07 17:10:09;;;;;;;0.40;0.35;;;27.00;99.90;;;;;;20550322;28;20256;-87
2021/08/07 17:30:41;;;;;;;3.47;1.10;;;27.10;99.90;;;;;;20527255;28;20195;-78
2021/08/07 17:40:51;;;;;;;0.25;0.17;;;27.00;99.90;;;;;;20507041;28;20234;-84
2021/08/07 17:51:18;;;;;;;0.73;0.30;;;27.00;99.90;;;;;;20554649;28;20257;-83
2021/08/07 18:01:24;;;;;;;1.58;1.05;;;27.10;99.90;;;;;;20673464;23;20240;-80
2021/08/07 18:11:38;;;;;;;2.30;1.27;;;27.20;99.90;;;;;;20640549;28;20261;-73
2021/08/07 18:21:45;;;;;;;0.90;0.55;;;26.70;99.90;;;;;;20638033;28;20219;-83
2021/08/07 18:32:03;;;;;;;0.57;0.47;;;26.20;99.90;;;;;;20632997;28;21015;-82
2021/08/07 18:42:17;;;;;;;0.68;0.38;;;26.20;99.90;;;;;;20650280;28;20804;-73
2021/08/07 18:52:27;;;;;;;0.68;0.52;;;26.10;99.90;;;;;;20598413;28;20198;-76
2021/08/07 19:02:32;;;;;;;0.50;0.50;;;26.00;99.90;;;;;;20568174;28;20246;-85
2021/08/07 19:12:40;;;;;;;2.25;1.58;;;25.60;99.90;;;;;;20462845;29;20277;-80
2021/08/07 19:23:01;;;;;;;0.30;0.20;;;25.50;99.90;;;;;;20510080;23;20371;-87
2021/08/07 19:33:05;;;;;;;0.95;0.70;;;25.60;99.90;;;;;;20607807;23;20243;-85
2021/08/07 19:43:11;;;;;;;0.50;0.30;;;25.40;99.90;;;;;;20624521;28;20245;-88
2021/08/07 19:53:20;;;;;;;1.48;0.57;;;25.20;99.90;;;;;;20600480;28;20199;-85
2021/08/07 20:03:28;;;;;;;0.52;0.40;;;25.30;99.90;;;;;;20740063;23;20261;-82
2021/08/07 20:13:50;;;;;;;4.97;1.55;;;25.40;99.90;;;;;;20749182;23;20250;-82
2021/08/07 20:24:12;;;;;;;0.30;0.20;;;25.40;99.90;;;;;;20682787;28;20230;-75
2021/08/07 20:34:18;;;;;;;0.55;0.20;;;25.30;99.90;;;;;;20696869;28;20202;-78
2021/08/07 20:44:22;;;;;;;0.93;0.85;;;25.20;99.90;;;;;;20700306;28;20222;-79
2021/08/07 20:54:31;;;;;;;1.17;0.38;;;25.20;99.90;;;;;;20697100;23;20315;-83
2021/08/07 21:04:35;;;;;;;1.35;0.68;;;25.10;99.90;;;;;;20606464;28;20219;-85
2021/08/07 21:14:41;;;;;;;2.42;1.45;;;25.20;99.90;;;;;;20616391;28;20199;-83
2021/08/07 21:24:44;;;;;;;6.72;0.68;;;25.40;99.90;;;;;;20599819;28;20809;-82
2021/08/07 21:34:50;;;;;;;0.98;0.40;;;25.10;99.90;;;;;;20572221;28;20492;-84
2021/08/07 21:44:53;;;;;;;0.43;0.43;;;25.00;99.90;;;;;;20567882;28;20655;-82
2021/08/07 21:54:59;;;;;;;0.30;0.20;;;24.80;99.90;;;;;;20579757;28;20971;-84
2021/08/07 22:05:02;;;;;;;0.65;0.65;;;24.50;99.90;;;;;;20479799;28;20691;-84
2021/08/07 22:15:09;;;;;;;0.98;0.60;;;24.30;99.90;;;;;;20485574;28;21013;-82
2021/08/07 22:25:13;;;;;;;1.55;0.65;;;24.50;99.90;;;;;;20515509;28;20290;-84
2021/08/07 22:35:20;;;;;;;2.83;1.13;;;24.20;99.90;;;;;;20519736;28;20263;-87
2021/08/07 22:45:24;;;;;;;1.00;0.63;;;24.20;99.90;;;;;;20523125;28;20709;-87
2021/08/07 22:55:33;;;;;;;3.50;0.45;;;23.80;99.90;;;;;;20492476;28;20228;-80
2021/08/07 23:05:37;;;;;;;0.80;0.75;;;23.80;99.90;;;;;;20504255;28;20224;-80
2021/08/07 23:15:42;;;;;;;0.50;0.35;;;23.70;99.90;;;;;;20483024;28;20193;-83
2021/08/07 23:25:46;;;;;;;0.38;0.35;;;23.70;99.90;;;;;;20485425;28;20233;-83
2021/08/07 23:35:51;;;;;;;0.40;0.28;;;23.70;99.90;;;;;;20482890;28;20206;-80
2021/08/07 23:45:55;;;;;;;0.30;0.30;;;23.70;99.90;;;;;;20538295;28;20314;-79
2021/08/07 23:56:00;;;;;;;0.40;0.40;;;23.70;99.90;;;;;;20567281;28;20239;-81
